createdAt,value
2019-01-08T00:04:44.794Z,93.94
2019-01-08T00:09:48.927Z,94.84
2019-01-08T00:14:53.151Z,95.39
2019-01-08T00:19:57.506Z,95.52
2019-01-08T00:25:01.775Z,95.37
2019-01-08T00:30:06.903Z,95.57
2019-01-08T00:35:11.101Z,95.27
2019-01-08T00:40:15.289Z,93.98
2019-01-08T00:45:19.484Z,94.14
2019-01-08T00:50:23.585Z,93.97
2019-01-08T00:55:27.800Z,94.07
2019-01-08T01:00:32.028Z,94.10
2019-01-08T01:05:36.177Z,94.62
2019-01-08T01:10:40.336Z,94.99
2019-01-08T01:15:45.042Z,94.93
2019-01-08T01:20:49.107Z,94.89
2019-01-08T01:25:53.253Z,94.82
2019-01-08T01:30:57.397Z,95.16
2019-01-08T01:36:01.539Z,95.31
2019-01-08T01:41:05.667Z,94.94
2019-01-08T01:46:09.840Z,95.35
2019-01-08T01:51:13.979Z,95.06
2019-01-08T01:56:18.143Z,95.24
2019-01-08T02:01:22.192Z,95.11
2019-01-08T02:06:26.317Z,95.23
2019-01-08T02:11:30.544Z,95.20
2019-01-08T02:16:34.515Z,95.33
2019-01-08T02:21:38.731Z,94.85
2019-01-08T02:26:42.696Z,94.26
2019-01-08T02:31:46.698Z,93.59
2019-01-08T02:36:50.809Z,92.88
2019-01-08T02:41:54.985Z,91.90
2019-01-08T02:46:59.040Z,91.26
2019-01-08T02:52:03.069Z,90.59
2019-01-08T02:57:07.144Z,90.46
2019-01-08T03:02:11.216Z,89.54
2019-01-08T03:07:15.289Z,89.52
2019-01-08T03:12:19.364Z,88.62
2019-01-08T03:17:23.667Z,88.45
2019-01-08T03:22:27.810Z,87.54
2019-01-08T03:27:32.043Z,86.83
2019-01-08T03:32:36.107Z,86.67
2019-01-08T03:37:40.261Z,86.42
2019-01-08T03:42:44.394Z,86.43
2019-01-08T03:47:48.527Z,85.92
2019-01-08T03:52:52.595Z,86.03
2019-01-08T03:57:56.890Z,85.57
2019-01-08T04:03:01.160Z,85.93
2019-01-08T04:08:05.380Z,89.88
2019-01-08T04:13:09.514Z,91.31
2019-01-08T04:18:14.034Z,90.86
2019-01-08T04:23:18.180Z,90.78
2019-01-08T04:28:22.360Z,90.06
2019-01-08T04:33:26.582Z,90.06
2019-01-08T04:38:30.610Z,89.48
2019-01-08T04:43:34.705Z,89.19
2019-01-08T04:48:38.758Z,88.86
2019-01-08T04:53:42.862Z,88.21
2019-01-08T04:58:46.911Z,87.86
2019-01-08T05:03:50.905Z,86.98
2019-01-08T05:08:54.826Z,87.05
2019-01-08T05:13:58.694Z,88.46
2019-01-08T05:19:02.780Z,89.17
2019-01-08T05:24:06.831Z,88.06
2019-01-08T05:29:10.769Z,87.75
2019-01-08T05:34:14.833Z,87.31
2019-01-08T05:39:18.729Z,86.35
2019-01-08T05:44:22.732Z,85.16
2019-01-08T05:49:26.777Z,84.71
2019-01-08T05:54:30.738Z,83.92
2019-01-08T05:59:34.688Z,83.54
2019-01-08T06:04:38.898Z,83.83
2019-01-08T06:09:43.126Z,83.09
2019-01-08T06:14:47.294Z,82.11
2019-01-08T06:19:51.424Z,81.74
2019-01-08T06:24:55.496Z,80.40
2019-01-08T06:29:59.598Z,81.07
2019-01-08T06:35:03.858Z,81.45
2019-01-08T06:40:07.989Z,80.90
2019-01-08T06:45:12.083Z,81.29
2019-01-08T06:50:16.261Z,81.81
2019-01-08T06:55:20.368Z,81.71
2019-01-08T07:00:24.417Z,82.20
2019-01-08T07:05:28.577Z,82.21
2019-01-08T07:10:32.388Z,82.34
2019-01-08T07:15:36.291Z,81.91
2019-01-08T07:20:40.287Z,81.43
2019-01-08T07:25:44.277Z,80.91
2019-01-08T07:30:48.226Z,80.20
2019-01-08T07:35:52.252Z,79.42
2019-01-08T07:40:56.384Z,79.48
2019-01-08T07:46:00.493Z,78.60
2019-01-08T07:51:04.535Z,78.75
2019-01-08T07:56:08.424Z,79.15
2019-01-08T08:01:12.149Z,81.35
2019-01-08T08:06:15.944Z,82.34
2019-01-08T08:11:19.664Z,82.78
2019-01-08T08:16:23.403Z,82.52
2019-01-08T08:21:27.171Z,83.56
2019-01-08T08:26:30.998Z,81.05
2019-01-08T08:31:34.778Z,80.43
2019-01-08T08:36:38.520Z,79.78
2019-01-08T08:41:42.323Z,83.05
2019-01-08T08:46:46.098Z,82.40
2019-01-08T08:51:49.896Z,82.50
2019-01-08T08:56:53.785Z,81.57
2019-01-08T09:01:57.684Z,82.04
2019-01-08T09:07:01.451Z,83.64
2019-01-08T09:12:05.338Z,87.84
2019-01-08T09:17:09.071Z,87.07
2019-01-08T09:22:12.804Z,86.25
2019-01-08T09:27:16.524Z,86.23
2019-01-08T09:32:20.269Z,84.45
2019-01-08T09:37:24.050Z,83.99
2019-01-08T09:42:27.812Z,82.93
2019-01-08T09:47:31.664Z,83.19
2019-01-08T09:52:35.446Z,82.66
2019-01-08T09:57:39.426Z,82.62
2019-01-08T10:02:43.229Z,84.10
2019-01-08T10:07:47.068Z,85.04
2019-01-08T10:12:51.037Z,85.14
2019-01-08T10:17:54.892Z,83.84
2019-01-08T10:22:58.679Z,81.79
2019-01-08T10:28:02.638Z,81.93
2019-01-08T10:33:06.543Z,81.95
2019-01-08T10:38:10.544Z,79.32
2019-01-08T10:43:14.301Z,79.32
2019-01-08T10:48:18.188Z,78.90
2019-01-08T10:53:22.026Z,78.38
2019-01-08T10:58:25.762Z,78.22
2019-01-08T11:03:29.560Z,77.71
2019-01-08T11:08:33.533Z,77.36
2019-01-08T11:13:37.512Z,77.82
2019-01-08T11:18:41.441Z,77.37
2019-01-08T11:23:45.438Z,79.04
2019-01-08T11:28:49.288Z,83.63
2019-01-08T11:33:53.233Z,87.54
2019-01-08T11:38:57.102Z,90.61
2019-01-08T11:44:01.043Z,93.07
2019-01-08T11:49:05.023Z,94.42
2019-01-08T11:54:08.909Z,95.17
2019-01-08T11:59:12.807Z,95.60
2019-01-08T12:04:16.707Z,96.10
2019-01-08T12:09:20.732Z,96.54
2019-01-08T12:14:24.700Z,96.53
2019-01-08T12:19:28.592Z,96.39
2019-01-08T12:24:32.664Z,96.35
2019-01-08T12:29:36.605Z,96.02
2019-01-08T12:34:40.528Z,95.68
2019-01-08T12:39:44.454Z,95.20
2019-01-08T12:44:48.432Z,94.86
2019-01-08T12:49:54.363Z,94.76
2019-01-08T12:54:58.004Z,93.92
2019-01-08T13:00:02.031Z,93.21
2019-01-08T13:05:06.296Z,93.01
2019-01-08T13:10:10.304Z,92.57
2019-01-08T13:15:14.253Z,92.79
2019-01-08T13:20:18.126Z,91.82
2019-01-08T13:25:22.079Z,92.26
2019-01-08T13:30:25.945Z,92.90
2019-01-08T13:35:29.695Z,92.53
2019-01-08T13:40:33.595Z,92.21
2019-01-08T13:45:37.469Z,91.37
2019-01-08T13:50:41.475Z,91.46
2019-01-08T13:55:45.246Z,91.28
2019-01-08T14:00:49.013Z,93.70
2019-01-08T14:05:52.831Z,94.58
2019-01-08T14:10:56.870Z,95.28
2019-01-08T14:16:00.725Z,95.37
2019-01-08T14:21:04.532Z,95.45
2019-01-08T14:26:08.490Z,95.84
2019-01-08T14:31:12.366Z,95.96
2019-01-08T14:36:16.159Z,95.32
2019-01-08T14:41:19.909Z,94.89
2019-01-08T14:46:24.565Z,94.78
2019-01-08T14:51:28.349Z,94.50
2019-01-08T14:56:32.184Z,93.97
2019-01-08T15:01:36.223Z,94.23
2019-01-08T15:06:40.092Z,94.29
2019-01-08T15:11:44.124Z,93.56
2019-01-08T15:16:48.193Z,92.99
2019-01-08T15:21:51.995Z,90.31
2019-01-08T15:26:55.784Z,90.31
2019-01-08T15:31:59.675Z,90.49
2019-01-08T15:37:03.574Z,91.00
2019-01-08T15:42:07.567Z,91.68
2019-01-08T15:47:11.602Z,91.36
2019-01-08T15:52:15.589Z,90.75
2019-01-08T15:57:19.644Z,91.67
2019-01-08T16:02:23.389Z,89.89
2019-01-08T16:07:27.179Z,89.24
2019-01-08T16:12:31.025Z,89.75
2019-01-08T16:17:34.743Z,88.36
2019-01-08T16:22:38.469Z,90.24
2019-01-08T16:27:42.287Z,89.32
2019-01-08T16:32:56.723Z,88.77
2019-01-08T16:38:03.543Z,84.81
2019-01-08T16:43:07.721Z,87.29
2019-01-08T16:48:11.628Z,86.42
2019-01-08T16:53:15.462Z,89.16
2019-01-08T16:58:19.456Z,89.73
2019-01-08T17:03:24.869Z,90.44
2019-01-08T17:08:28.899Z,89.97
2019-01-08T17:13:32.884Z,90.74
2019-01-08T17:18:36.764Z,89.97
2019-01-08T17:23:40.689Z,89.11
2019-01-08T17:28:44.497Z,90.69
2019-01-08T17:33:48.430Z,92.04
2019-01-08T17:38:52.369Z,93.03
2019-01-08T17:43:56.348Z,92.67
2019-01-08T17:49:00.197Z,92.62
2019-01-08T17:54:04.261Z,92.46
2019-01-08T17:59:14.286Z,92.29
2019-01-08T18:04:18.913Z,93.05
2019-01-08T18:09:22.846Z,93.86
2019-01-08T18:14:26.652Z,94.24
2019-01-08T18:19:30.702Z,93.80
2019-01-08T18:24:34.788Z,93.88
2019-01-08T18:29:38.930Z,93.91
2019-01-08T18:34:42.919Z,93.49
2019-01-08T18:39:47.013Z,92.56
2019-01-08T18:44:51.063Z,92.66
2019-01-08T18:49:54.967Z,91.08
2019-01-08T18:54:58.926Z,89.66
2019-01-08T19:00:02.951Z,88.29
2019-01-08T19:05:07.019Z,88.66
2019-01-08T19:10:13.526Z,86.84
2019-01-08T19:15:17.507Z,87.82
2019-01-08T19:20:21.614Z,89.18
2019-01-08T19:25:25.686Z,88.58
2019-01-08T19:30:29.637Z,89.14
2019-01-08T19:35:33.641Z,89.31
2019-01-08T19:40:37.498Z,91.19
2019-01-08T19:45:41.530Z,91.19
2019-01-08T19:50:45.466Z,92.06
2019-01-08T19:55:49.486Z,93.45
2019-01-08T20:00:53.445Z,94.88
2019-01-08T20:05:57.616Z,96.00
2019-01-08T20:11:01.638Z,96.65
2019-01-08T20:16:05.510Z,96.83
2019-01-08T20:21:09.525Z,95.47
2019-01-08T20:26:13.600Z,95.04
2019-01-08T20:31:17.541Z,94.57
2019-01-08T20:36:21.460Z,94.32
2019-01-08T20:41:25.445Z,93.75
2019-01-08T20:46:29.443Z,93.89
2019-01-08T20:51:33.349Z,93.41
2019-01-08T20:56:37.183Z,92.26
2019-01-08T21:01:41.073Z,91.53
2019-01-08T21:06:44.868Z,91.57
2019-01-08T21:11:48.841Z,90.82
2019-01-08T21:16:52.808Z,89.49
2019-01-08T21:21:56.966Z,90.39
2019-01-08T21:27:01.171Z,90.32
2019-01-08T21:32:05.211Z,89.64
2019-01-08T21:37:09.425Z,89.38
2019-01-08T21:42:13.366Z,88.61
2019-01-08T21:47:17.479Z,88.35
2019-01-08T21:52:21.578Z,87.87
2019-01-08T21:57:35.474Z,88.60
2019-01-08T22:02:39.836Z,88.28
2019-01-08T22:07:43.957Z,88.63
2019-01-08T22:12:48.058Z,89.21
2019-01-08T22:17:52.016Z,90.46
2019-01-08T22:22:56.185Z,91.82
2019-01-08T22:28:00.178Z,92.81
2019-01-08T22:33:04.311Z,93.69
2019-01-08T22:38:08.439Z,94.04
2019-01-08T22:43:12.595Z,94.09
2019-01-08T22:48:16.710Z,94.42
2019-01-08T22:53:20.839Z,94.92
2019-01-08T22:58:25.405Z,94.73
2019-01-08T23:03:29.646Z,94.50
2019-01-08T23:08:33.925Z,94.50
2019-01-08T23:13:38.207Z,94.42
2019-01-08T23:18:42.339Z,94.49
2019-01-08T23:23:46.649Z,94.35
2019-01-08T23:28:50.770Z,94.34
2019-01-08T23:33:54.883Z,94.23
2019-01-08T23:38:58.898Z,94.15
2019-01-08T23:44:02.898Z,94.53
2019-01-08T23:49:07.035Z,94.61
2019-01-08T23:54:11.559Z,94.78
2019-01-08T23:59:15.680Z,95.20
